Terminal Aerodrome Forecast
Issued by NWS

Home | Current Version | Previous Version | Text Only | Print | Product List | Glossary On
Versions: 1 2 3 4 5 6 7 8 9 10 11 12 13 14 15 16 17 18
556
FTUS46 KSEW 222340
TAFPAE
TAF
KPAE 222340Z 2300/2324 16009KT P6SM VCSH SCT020 BKN030
     FM230400 16008KT P6SM SCT030 BKN050
     FM230700 15008KT P6SM SCT050 BKN150
     FM231300 14011G18KT P6SM -RA SCT030 OVC040
     FM232200 16015G25KT P6SM -RA SCT020 OVC030=

USA.gov is the U.S. government's official web portal to all federal, state and local government web resources and services.